Smethport, North Carolina
Current Conditions -  °F | °C
As of 9:35 PM on Thursday 20 Nov 2014 (Local Time) from KGEV Reporting Station
Clear Clear  
Wind Chill: 27°   Ceiling: Unl
Heat Index: 36°   Visibility: 10mi
Dew Point: 18°   Wind: 15mph
Humidity: 48%   Direction: 280°W
Pressure: 30.06"   Gusts: 37mph
Location:  36.358°N, 81.4709°W
Report Text: KGEV 210235Z AUTO 28013G32KT 10SM CLR 02/M08 A3006 RMK AO2 T00221079
Loading
Personal Weather Stations






























Interactive Weather Map New forecast layout! Learn more

10-Day Weather Forecast

Advertisements
Track Severe Weather on mobile